sensor_id;sensor_type;location;lat;lon;timestamp;pressure;altitude;pressure_sealevel;temperature;humidity
85772;BME280;76212;56.844;41.394;2024-02-21T00:01:55;101560.69;;;-7.40;73.54
85772;BME280;76212;56.844;41.394;2024-02-21T00:04:21;101558.97;;;-7.41;73.65
85772;BME280;76212;56.844;41.394;2024-02-21T00:06:47;101560.66;;;-7.43;74.21
85772;BME280;76212;56.844;41.394;2024-02-21T00:09:14;101556.31;;;-7.47;73.93
85772;BME280;76212;56.844;41.394;2024-02-21T00:11:40;101532.91;;;-7.62;74.48
85772;BME280;76212;56.844;41.394;2024-02-21T00:14:06;101560.63;;;-7.46;74.52
85772;BME280;76212;56.844;41.394;2024-02-21T00:16:32;101536.34;;;-7.60;73.89
85772;BME280;76212;56.844;41.394;2024-02-21T00:18:58;101552.03;;;-7.45;74.18
85772;BME280;76212;56.844;41.394;2024-02-21T00:21:25;101496.59;;;-7.76;74.63
85772;BME280;76212;56.844;41.394;2024-02-21T00:23:51;101557.19;;;-7.45;74.67
85772;BME280;76212;56.844;41.394;2024-02-21T00:26:17;101482.78;;;-7.81;74.16
85772;BME280;76212;56.844;41.394;2024-02-21T00:28:43;101553.84;;;-7.39;74.57
85772;BME280;76212;56.844;41.394;2024-02-21T00:31:10;101542.63;;;-7.41;74.50
85772;BME280;76212;56.844;41.394;2024-02-21T00:33:37;101546.97;;;-7.37;74.31
85772;BME280;76212;56.844;41.394;2024-02-21T00:36:03;101551.28;;;-7.35;74.60
85772;BME280;76212;56.844;41.394;2024-02-21T00:38:29;101488.97;;;-7.70;73.66
85772;BME280;76212;56.844;41.394;2024-02-21T00:40:55;101558.13;;;-7.38;74.39
85772;BME280;76212;56.844;41.394;2024-02-21T00:43:22;101542.66;;;-7.38;74.44
85772;BME280;76212;56.844;41.394;2024-02-21T00:45:50;101540.97;;;-7.36;74.53
85772;BME280;76212;56.844;41.394;2024-02-21T00:48:17;101537.47;;;-7.41;74.25
85772;BME280;76212;56.844;41.394;2024-02-21T00:50:43;101539.19;;;-7.40;74.32
85772;BME280;76212;56.844;41.394;2024-02-21T00:53:09;101533.16;;;-7.41;74.99
85772;BME280;76212;56.844;41.394;2024-02-21T00:55:36;101515.81;;;-7.54;74.46
85772;BME280;76212;56.844;41.394;2024-02-21T00:58:02;101534.03;;;-7.42;74.76
85772;BME280;76212;56.844;41.394;2024-02-21T01:00:28;101511.47;;;-7.57;74.83
85772;BME280;76212;56.844;41.394;2024-02-21T01:02:54;101539.94;;;-7.49;74.83
85772;BME280;76212;56.844;41.394;2024-02-21T01:05:21;101539.09;;;-7.48;74.22
85772;BME280;76212;56.844;41.394;2024-02-21T01:07:48;101519.25;;;-7.54;74.25
85772;BME280;76212;56.844;41.394;2024-02-21T01:10:14;101517.56;;;-7.52;75.07
85772;BME280;76212;56.844;41.394;2024-02-21T01:12:41;101453.50;;;-7.88;74.45
85772;BME280;76212;56.844;41.394;2024-02-21T01:15:07;101521.84;;;-7.51;74.38
85772;BME280;76212;56.844;41.394;2024-02-21T01:17:33;101520.13;;;-7.52;74.47
85772;BME280;76212;56.844;41.394;2024-02-21T01:20:00;101514.13;;;-7.51;74.82
85772;BME280;76212;56.844;41.394;2024-02-21T01:22:26;101521.84;;;-7.51;74.86
85772;BME280;76212;56.844;41.394;2024-02-21T01:24:53;101510.72;;;-7.50;75.05
85772;BME280;76212;56.844;41.394;2024-02-21T01:27:19;101516.69;;;-7.52;74.76
85772;BME280;76212;56.844;41.394;2024-02-21T01:29:46;101510.66;;;-7.54;74.70
85772;BME280;76212;56.844;41.394;2024-02-21T01:32:16;101515.78;;;-7.57;74.62
85772;BME280;76212;56.844;41.394;2024-02-21T01:34:42;101457.75;;;-7.90;74.31
85772;BME280;76212;56.844;41.394;2024-02-21T01:37:09;101511.47;;;-7.57;74.72
85772;BME280;76212;56.844;41.394;2024-02-21T01:39:35;101504.56;;;-7.59;74.41
85772;BME280;76212;56.844;41.394;2024-02-21T01:42:02;101477.72;;;-7.74;74.54
85772;BME280;76212;56.844;41.394;2024-02-21T01:44:28;101510.66;;;-7.54;74.57
85772;BME280;76212;56.844;41.394;2024-02-21T01:46:54;101457.03;;;-7.80;74.24
85772;BME280;76212;56.844;41.394;2024-02-21T01:49:21;101504.63;;;-7.53;74.55
85772;BME280;76212;56.844;41.394;2024-02-21T01:51:48;101502.88;;;-7.56;74.64
85772;BME280;76212;56.844;41.394;2024-02-21T01:54:16;101484.72;;;-7.65;74.57
85772;BME280;76212;56.844;41.394;2024-02-21T01:56:44;101442.28;;;-7.90;74.77
85772;BME280;76212;56.844;41.394;2024-02-21T01:59:11;101491.63;;;-7.61;74.20
85772;BME280;76212;56.844;41.394;2024-02-21T02:01:39;101494.25;;;-7.58;74.06
85772;BME280;76212;56.844;41.394;2024-02-21T02:04:07;101493.31;;;-7.64;74.57
85772;BME280;76212;56.844;41.394;2024-02-21T02:06:33;101490.72;;;-7.66;74.54
85772;BME280;76212;56.844;41.394;2024-02-21T02:09:00;101479.44;;;-7.74;74.21
85772;BME280;76212;56.844;41.394;2024-02-21T02:11:26;101488.94;;;-7.72;74.36
85772;BME280;76212;56.844;41.394;2024-02-21T02:13:52;101477.59;;;-7.86;74.53
85772;BME280;76212;56.844;41.394;2024-02-21T02:16:18;101491.47;;;-7.75;74.37
85772;BME280;76212;56.844;41.394;2024-02-21T02:18:45;101480.22;;;-7.78;74.28
85772;BME280;76212;56.844;41.394;2024-02-21T02:21:13;101480.22;;;-7.78;75.06
85772;BME280;76212;56.844;41.394;2024-02-21T02:23:42;101471.56;;;-7.85;74.60
85772;BME280;76212;56.844;41.394;2024-02-21T02:26:09;101485.34;;;-7.81;74.94
85772;BME280;76212;56.844;41.394;2024-02-21T02:28:35;101487.94;;;-7.83;74.94
85772;BME280;76212;56.844;41.394;2024-02-21T02:31:01;101494.78;;;-7.85;75.46
85772;BME280;76212;56.844;41.394;2024-02-21T02:33:28;101477.50;;;-7.89;74.69
85772;BME280;76212;56.844;41.394;2024-02-21T02:35:54;101448.03;;;-8.11;75.42
85772;BME280;76212;56.844;41.394;2024-02-21T02:38:20;101483.50;;;-7.93;75.28
85772;BME280;76212;56.844;41.394;2024-02-21T02:40:47;101427.22;;;-8.23;74.77
85772;BME280;76212;56.844;41.394;2024-02-21T02:43:13;101474.88;;;-7.95;75.17
85772;BME280;76212;56.844;41.394;2024-02-21T02:45:39;101470.56;;;-7.96;75.87
85772;BME280;76212;56.844;41.394;2024-02-21T02:48:06;101467.91;;;-7.99;75.25
85772;BME280;76212;56.844;41.394;2024-02-21T02:50:32;101469.59;;;-8.03;75.02
85772;BME280;76212;56.844;41.394;2024-02-21T02:52:58;101464.44;;;-8.03;75.79
85772;BME280;76212;56.844;41.394;2024-02-21T02:55:25;101456.66;;;-8.07;76.10
85772;BME280;76212;56.844;41.394;2024-02-21T02:57:52;101463.50;;;-8.10;75.71
85772;BME280;76212;56.844;41.394;2024-02-21T03:00:18;101463.47;;;-8.11;75.94
85772;BME280;76212;56.844;41.394;2024-02-21T03:02:48;101395.97;;;-8.49;76.05
85772;BME280;76212;56.844;41.394;2024-02-21T03:05:19;101469.50;;;-8.11;76.06
85772;BME280;76212;56.844;41.394;2024-02-21T03:07:46;101460.09;;;-8.07;76.18
85772;BME280;76212;56.844;41.394;2024-02-21T03:10:13;101380.50;;;-8.52;76.31
85772;BME280;76212;56.844;41.394;2024-02-21T03:12:40;101454.09;;;-8.04;76.29
85772;BME280;76212;56.844;41.394;2024-02-21T03:15:06;101463.56;;;-8.05;76.56
85772;BME280;76212;56.844;41.394;2024-02-21T03:17:33;101407.34;;;-8.34;75.83
85772;BME280;76212;56.844;41.394;2024-02-21T03:20:03;101458.41;;;-8.05;76.78
85772;BME280;76212;56.844;41.394;2024-02-21T03:22:38;101461.03;;;-8.02;76.88
85772;BME280;76212;56.844;41.394;2024-02-21T03:25:05;101452.31;;;-8.12;76.35
85772;BME280;76212;56.844;41.394;2024-02-21T03:27:33;101460.91;;;-8.10;76.42
85772;BME280;76212;56.844;41.394;2024-02-21T03:29:59;101461.88;;;-8.03;76.44
85772;BME280;76212;56.844;41.394;2024-02-21T03:32:25;101463.63;;;-8.00;76.56
85772;BME280;76212;56.844;41.394;2024-02-21T03:34:52;101441.97;;;-8.13;76.02
85772;BME280;76212;56.844;41.394;2024-02-21T03:37:18;101465.34;;;-7.99;76.32
85772;BME280;76212;56.844;41.394;2024-02-21T03:39:44;101473.88;;;-8.06;76.56
85772;BME280;76212;56.844;41.394;2024-02-21T03:42:11;101402.09;;;-8.41;76.17
85772;BME280;76212;56.844;41.394;2024-02-21T03:44:37;101466.16;;;-8.03;76.18
85772;BME280;76212;56.844;41.394;2024-02-21T03:47:03;101338.13;;;-8.73;76.13
85772;BME280;76212;56.844;41.394;2024-02-21T03:49:30;101420.19;;;-8.35;76.45
85772;BME280;76212;56.844;41.394;2024-02-21T03:51:57;101464.28;;;-8.17;75.97
85772;BME280;76212;56.844;41.394;2024-02-21T03:54:23;101451.31;;;-8.21;76.55
85772;BME280;76212;56.844;41.394;2024-02-21T03:56:49;101449.63;;;-8.18;76.40
85772;BME280;76212;56.844;41.394;2024-02-21T03:59:16;101438.31;;;-8.27;76.92
85772;BME280;76212;56.844;41.394;2024-02-21T04:01:42;101448.63;;;-8.27;76.84
85772;BME280;76212;56.844;41.394;2024-02-21T04:04:10;101434.81;;;-8.33;77.36
85772;BME280;76212;56.844;41.394;2024-02-21T04:06:36;101368.88;;;-8.82;76.43
85772;BME280;76212;56.844;41.394;2024-02-21T04:09:02;101436.41;;;-8.44;77.56
85772;BME280;76212;56.844;41.394;2024-02-21T04:11:29;101262.31;;;-9.53;76.99
85772;BME280;76212;56.844;41.394;2024-02-21T04:13:55;101442.34;;;-8.49;77.46
85772;BME280;76212;56.844;41.394;2024-02-21T04:16:21;101449.19;;;-8.51;77.03
85772;BME280;76212;56.844;41.394;2024-02-21T04:18:48;101372.06;;;-8.97;76.97
85772;BME280;76212;56.844;41.394;2024-02-21T04:21:14;101458.63;;;-8.52;77.21
85772;BME280;76212;56.844;41.394;2024-02-21T04:23:41;101388.50;;;-8.90;77.49
85772;BME280;76212;56.844;41.394;2024-02-21T04:26:07;101453.44;;;-8.53;77.05
85772;BME280;76212;56.844;41.394;2024-02-21T04:28:34;101464.66;;;-8.50;77.46
85772;BME280;76212;56.844;41.394;2024-02-21T04:31:00;101466.34;;;-8.50;76.85
85772;BME280;76212;56.844;41.394;2024-02-21T04:33:26;101397.13;;;-8.88;76.80
85772;BME280;76212;56.844;41.394;2024-02-21T04:35:53;101441.19;;;-8.68;77.67
85772;BME280;76212;56.844;41.394;2024-02-21T04:38:21;101462.00;;;-8.55;77.44
85772;BME280;76212;56.844;41.394;2024-02-21T04:40:47;101398.72;;;-8.95;77.85
85772;BME280;76212;56.844;41.394;2024-02-21T04:43:13;101475.72;;;-8.57;77.16
85772;BME280;76212;56.844;41.394;2024-02-21T04:45:40;101462.72;;;-8.65;77.54
85772;BME280;76212;56.844;41.394;2024-02-21T04:48:06;101472.25;;;-8.59;77.20
85772;BME280;76212;56.844;41.394;2024-02-21T04:50:32;101451.47;;;-8.68;77.19
85772;BME280;76212;56.844;41.394;2024-02-21T04:52:59;101469.78;;;-8.51;76.95
85772;BME280;76212;56.844;41.394;2024-02-21T04:55:25;101477.53;;;-8.50;76.94
85772;BME280;76212;56.844;41.394;2024-02-21T04:57:51;101418.66;;;-8.83;76.99
85772;BME280;76212;56.844;41.394;2024-02-21T05:00:18;101444.69;;;-8.63;76.95
85772;BME280;76212;56.844;41.394;2024-02-21T05:02:44;101456.03;;;-8.52;76.90
85772;BME280;76212;56.844;41.394;2024-02-21T05:05:10;101467.38;;;-8.38;77.40
85772;BME280;76212;56.844;41.394;2024-02-21T05:07:36;101474.19;;;-8.43;76.78
85772;BME280;76212;56.844;41.394;2024-02-21T05:10:03;101474.25;;;-8.38;76.94
85772;BME280;76212;56.844;41.394;2024-02-21T05:12:29;101397.34;;;-8.73;76.63
85772;BME280;76212;56.844;41.394;2024-02-21T05:14:56;101395.56;;;-8.77;77.27
85772;BME280;76212;56.844;41.394;2024-02-21T05:17:22;101472.75;;;-8.22;77.23
85772;BME280;76212;56.844;41.394;2024-02-21T05:19:49;101407.06;;;-8.55;76.35
85772;BME280;76212;56.844;41.394;2024-02-21T05:22:15;101474.50;;;-8.21;76.71
85772;BME280;76212;56.844;41.394;2024-02-21T05:24:41;101442.63;;;-8.29;76.89
85772;BME280;76212;56.844;41.394;2024-02-21T05:27:07;101466.94;;;-8.11;76.43
85772;BME280;76212;56.844;41.394;2024-02-21T05:29:33;101442.66;;;-8.25;76.31
85772;BME280;76212;56.844;41.394;2024-02-21T05:32:00;101453.16;;;-8.13;76.09
85772;BME280;76212;56.844;41.394;2024-02-21T05:34:27;101462.81;;;-7.98;75.60
85772;BME280;76212;56.844;41.394;2024-02-21T05:36:53;101462.81;;;-7.98;75.69
85772;BME280;76212;56.844;41.394;2024-02-21T05:39:19;101470.53;;;-7.98;75.54
85772;BME280;76212;56.844;41.394;2024-02-21T05:41:49;101325.03;;;-8.87;75.22
85772;BME280;76212;56.844;41.394;2024-02-21T05:44:16;101466.16;;;-8.02;75.43
85772;BME280;76212;56.844;41.394;2024-02-21T05:46:43;101473.25;;;-7.87;75.60
85772;BME280;76212;56.844;41.394;2024-02-21T05:49:09;101462.13;;;-7.86;75.83
85772;BME280;76212;56.844;41.394;2024-02-21T05:51:35;101473.41;;;-7.75;74.71
85772;BME280;76212;56.844;41.394;2024-02-21T05:54:02;101476.88;;;-7.73;74.65
85772;BME280;76212;56.844;41.394;2024-02-21T05:56:28;101483.72;;;-7.73;75.19
85772;BME280;76212;56.844;41.394;2024-02-21T05:58:55;101480.47;;;-7.61;74.45
85772;BME280;76212;56.844;41.394;2024-02-21T06:01:21;101479.66;;;-7.56;75.05
85772;BME280;76212;56.844;41.394;2024-02-21T06:03:47;101482.25;;;-7.56;74.31
85772;BME280;76212;56.844;41.394;2024-02-21T06:06:14;101484.91;;;-7.48;74.84
85772;BME280;76212;56.844;41.394;2024-02-21T06:08:43;101357.72;;;-8.17;74.38
85772;BME280;76212;56.844;41.394;2024-02-21T06:11:09;101485.03;;;-7.39;73.72
85772;BME280;76212;56.844;41.394;2024-02-21T06:13:38;101471.34;;;-7.30;74.04
85772;BME280;76212;56.844;41.394;2024-02-21T06:16:06;101360.53;;;-7.99;74.12
85772;BME280;76212;56.844;41.394;2024-02-21T06:18:35;101480.84;;;-7.29;73.58
85772;BME280;76212;56.844;41.394;2024-02-21T06:21:02;101365.81;;;-7.86;73.20
85772;BME280;76212;56.844;41.394;2024-02-21T06:23:28;101472.44;;;-7.10;73.28
85772;BME280;76212;56.844;41.394;2024-02-21T06:25:55;101476.00;;;-6.98;72.93
85772;BME280;76212;56.844;41.394;2024-02-21T06:28:21;101483.69;;;-7.03;72.91
85772;BME280;76212;56.844;41.394;2024-02-21T06:30:47;101421.31;;;-7.43;72.81
85772;BME280;76212;56.844;41.394;2024-02-21T06:33:14;101480.13;;;-7.16;72.87
85772;BME280;76212;56.844;41.394;2024-02-21T06:35:40;101484.56;;;-7.03;72.59
85772;BME280;76212;56.844;41.394;2024-02-21T06:38:08;101411.94;;;-7.35;73.54
85772;BME280;76212;56.844;41.394;2024-02-21T06:40:34;101486.47;;;-6.83;73.26
85772;BME280;76212;56.844;41.394;2024-02-21T06:43:05;101490.81;;;-6.79;72.88
85772;BME280;76212;56.844;41.394;2024-02-21T06:45:31;101366.25;;;-7.45;72.11
85772;BME280;76212;56.844;41.394;2024-02-21T06:47:57;101486.59;;;-6.66;71.70
85772;BME280;76212;56.844;41.394;2024-02-21T06:50:24;101482.31;;;-6.64;72.64
85772;BME280;76212;56.844;41.394;2024-02-21T06:52:50;101487.50;;;-6.61;71.83
85772;BME280;76212;56.844;41.394;2024-02-21T06:55:16;101476.44;;;-6.49;71.92
85772;BME280;76212;56.844;41.394;2024-02-21T06:57:43;101481.69;;;-6.32;71.27
85772;BME280;76212;56.844;41.394;2024-02-21T07:00:09;101480.09;;;-6.18;71.19
85772;BME280;76212;56.844;41.394;2024-02-21T07:02:35;101481.81;;;-6.14;71.51
85772;BME280;76212;56.844;41.394;2024-02-21T07:05:01;101481.88;;;-6.08;71.45
85772;BME280;76212;56.844;41.394;2024-02-21T07:07:28;101484.47;;;-6.06;71.75
85772;BME280;76212;56.844;41.394;2024-02-21T07:09:55;101483.63;;;-6.02;71.01
85772;BME280;76212;56.844;41.394;2024-02-21T07:12:22;101484.56;;;-5.88;71.01
85772;BME280;76212;56.844;41.394;2024-02-21T07:14:48;101424.91;;;-6.22;70.82
85772;BME280;76212;56.844;41.394;2024-02-21T07:17:14;101484.63;;;-5.71;70.43
85772;BME280;76212;56.844;41.394;2024-02-21T07:19:43;101485.53;;;-5.61;69.81
85772;BME280;76212;56.844;41.394;2024-02-21T07:22:09;101495.06;;;-5.51;70.69
85772;BME280;76212;56.844;41.394;2024-02-21T07:24:35;101386.19;;;-6.13;69.96
85772;BME280;76212;56.844;41.394;2024-02-21T07:27:02;101492.47;;;-5.51;69.94
85772;BME280;76212;56.844;41.394;2024-02-21T07:29:30;101485.56;;;-5.55;70.01
85772;BME280;76212;56.844;41.394;2024-02-21T07:31:57;101437.19;;;-5.75;69.16
85772;BME280;76212;56.844;41.394;2024-02-21T07:34:23;101429.41;;;-5.76;69.58
85772;BME280;76212;56.844;41.394;2024-02-21T07:36:50;101429.41;;;-5.78;69.30
85772;BME280;76212;56.844;41.394;2024-02-21T07:39:16;101471.78;;;-5.54;69.28
85772;BME280;76212;56.844;41.394;2024-02-21T07:41:43;101479.59;;;-5.37;69.10
85772;BME280;76212;56.844;41.394;2024-02-21T07:44:12;101492.56;;;-5.22;69.26
85772;BME280;76212;56.844;41.394;2024-02-21T07:46:38;101492.63;;;-5.07;68.42
85772;BME280;76212;56.844;41.394;2024-02-21T07:49:05;101427.81;;;-5.39;68.32
85772;BME280;76212;56.844;41.394;2024-02-21T07:51:31;101486.56;;;-5.04;68.98
85772;BME280;76212;56.844;41.394;2024-02-21T07:53:57;101503.84;;;-5.08;68.31
85772;BME280;76212;56.844;41.394;2024-02-21T07:56:27;101487.44;;;-5.13;68.13
85772;BME280;76212;56.844;41.394;2024-02-21T07:58:55;101449.41;;;-5.31;67.64
85772;BME280;76212;56.844;41.394;2024-02-21T08:01:21;101503.00;;;-4.91;67.90
85772;BME280;76212;56.844;41.394;2024-02-21T08:03:47;101495.28;;;-4.82;67.33
85772;BME280;76212;56.844;41.394;2024-02-21T08:06:14;101504.78;;;-4.69;67.64
85772;BME280;76212;56.844;41.394;2024-02-21T08:08:40;101503.06;;;-4.62;67.21
85772;BME280;76212;56.844;41.394;2024-02-21T08:11:07;101471.94;;;-4.79;66.47
85772;BME280;76212;56.844;41.394;2024-02-21T08:13:33;101503.91;;;-4.69;66.56
85772;BME280;76212;56.844;41.394;2024-02-21T08:16:00;101502.19;;;-4.66;66.85
85772;BME280;76212;56.844;41.394;2024-02-21T08:18:26;101368.28;;;-5.28;67.26
85772;BME280;76212;56.844;41.394;2024-02-21T08:20:52;101508.25;;;-4.41;66.09
85772;BME280;76212;56.844;41.394;2024-02-21T08:23:19;101489.22;;;-4.63;65.75
85772;BME280;76212;56.844;41.394;2024-02-21T08:25:45;101507.38;;;-4.56;66.15
85772;BME280;76212;56.844;41.394;2024-02-21T08:28:13;101494.41;;;-4.58;66.45
85772;BME280;76212;56.844;41.394;2024-02-21T08:30:39;101510.84;;;-4.38;66.31
85772;BME280;76212;56.844;41.394;2024-02-21T08:33:06;101490.97;;;-4.42;66.31
85772;BME280;76212;56.844;41.394;2024-02-21T08:35:32;101500.47;;;-4.33;66.54
85772;BME280;76212;56.844;41.394;2024-02-21T08:37:59;101503.91;;;-4.11;66.79
85772;BME280;76212;56.844;41.394;2024-02-21T08:40:25;101503.84;;;-3.86;65.49
85772;BME280;76212;56.844;41.394;2024-02-21T08:42:51;101493.41;;;-3.68;65.32
85772;BME280;76212;56.844;41.394;2024-02-21T08:45:19;101482.16;;;-3.61;65.53
85772;BME280;76212;56.844;41.394;2024-02-21T08:47:46;101481.34;;;-3.80;64.71
85772;BME280;76212;56.844;41.394;2024-02-21T08:50:12;101479.66;;;-3.87;64.84
85772;BME280;76212;56.844;41.394;2024-02-21T08:52:39;101493.44;;;-3.76;64.78
85772;BME280;76212;56.844;41.394;2024-02-21T08:55:06;101437.34;;;-4.23;64.71
85772;BME280;76212;56.844;41.394;2024-02-21T08:57:32;101495.22;;;-3.91;65.41
85772;BME280;76212;56.844;41.394;2024-02-21T09:00:05;101488.28;;;-3.91;64.71
85772;BME280;76212;56.844;41.394;2024-02-21T09:02:41;101479.63;;;-3.84;64.06
85772;BME280;76212;56.844;41.394;2024-02-21T09:05:11;101482.22;;;-3.85;64.68
85772;BME280;76212;56.844;41.394;2024-02-21T09:07:37;101476.13;;;-3.75;64.19
85772;BME280;76212;56.844;41.394;2024-02-21T09:10:04;101476.09;;;-3.63;64.15
85772;BME280;76212;56.844;41.394;2024-02-21T09:12:31;101473.50;;;-3.61;64.61
85772;BME280;76212;56.844;41.394;2024-02-21T09:14:57;101464.81;;;-3.56;63.48
85772;BME280;76212;56.844;41.394;2024-02-21T09:17:23;101448.41;;;-3.64;62.73
85772;BME280;76212;56.844;41.394;2024-02-21T09:19:51;101422.53;;;-3.84;63.52
85772;BME280;76212;56.844;41.394;2024-02-21T09:22:17;101459.63;;;-3.57;63.32
85772;BME280;76212;56.844;41.394;2024-02-21T09:24:44;101433.75;;;-3.69;62.67
85772;BME280;76212;56.844;41.394;2024-02-21T09:27:11;101472.47;;;-3.30;63.14
85772;BME280;76212;56.844;41.394;2024-02-21T09:29:37;101481.97;;;-3.19;62.47
85772;BME280;76212;56.844;41.394;2024-02-21T09:32:05;101479.38;;;-3.21;62.28
85772;BME280;76212;56.844;41.394;2024-02-21T09:34:32;101432.66;;;-3.32;62.24
85772;BME280;76212;56.844;41.394;2024-02-21T09:36:58;101481.00;;;-3.00;62.30
85772;BME280;76212;56.844;41.394;2024-02-21T09:39:25;101481.84;;;-2.99;62.45
85772;BME280;76212;56.844;41.394;2024-02-21T09:41:54;101470.63;;;-3.09;62.43
85772;BME280;76212;56.844;41.394;2024-02-21T09:44:24;101444.78;;;-3.32;62.19
85772;BME280;76212;56.844;41.394;2024-02-21T09:47:06;101475.03;;;-3.19;61.97
85772;BME280;76212;56.844;41.394;2024-02-21T09:49:34;101464.63;;;-3.16;62.26
85772;BME280;76212;56.844;41.394;2024-02-21T09:52:07;101477.47;;;-2.96;61.37
85772;BME280;76212;56.844;41.394;2024-02-21T09:54:34;101466.03;;;-2.69;60.72
85772;BME280;76212;56.844;41.394;2024-02-21T09:57:01;101454.13;;;-2.99;60.52
85772;BME280;76212;56.844;41.394;2024-02-21T09:59:28;101462.78;;;-2.95;60.82
85772;BME280;76212;56.844;41.394;2024-02-21T10:01:55;101412.66;;;-3.13;60.82
85772;BME280;76212;56.844;41.394;2024-02-21T10:04:21;101462.50;;;-2.60;59.71
85772;BME280;76212;56.844;41.394;2024-02-21T10:06:48;101456.31;;;-2.47;59.77
85772;BME280;76212;56.844;41.394;2024-02-21T10:09:25;101402.88;;;-2.83;58.66
85772;BME280;76212;56.844;41.394;2024-02-21T10:11:54;101465.22;;;-2.75;58.79
85772;BME280;76212;56.844;41.394;2024-02-21T10:14:21;101439.16;;;-2.68;59.14
85772;BME280;76212;56.844;41.394;2024-02-21T10:16:48;101420.88;;;-2.60;58.45
85772;BME280;76212;56.844;41.394;2024-02-21T10:19:19;101456.97;;;-2.23;58.14
85772;BME280;76212;56.844;41.394;2024-02-21T10:22:05;101454.13;;;-1.99;58.19
85772;BME280;76212;56.844;41.394;2024-02-21T10:24:36;101462.72;;;-1.92;57.16
85772;BME280;76212;56.844;41.394;2024-02-21T10:27:09;101448.00;;;-1.96;57.56
85772;BME280;76212;56.844;41.394;2024-02-21T10:29:37;101461.56;;;-1.66;56.87
85772;BME280;76212;56.844;41.394;2024-02-21T10:32:11;101454.88;;;-1.87;56.62
85772;BME280;76212;56.844;41.394;2024-02-21T10:34:39;101395.66;;;-1.73;56.54
85772;BME280;76212;56.844;41.394;2024-02-21T10:37:07;101455.78;;;-1.20;54.79
85772;BME280;76212;56.844;41.394;2024-02-21T10:39:36;101452.16;;;-1.13;54.86
85772;BME280;76212;56.844;41.394;2024-02-21T10:42:03;101458.34;;;-1.19;54.54
85772;BME280;76212;56.844;41.394;2024-02-21T10:44:36;101445.41;;;-1.25;54.36
85772;BME280;76212;56.844;41.394;2024-02-21T10:47:07;101457.31;;;-1.07;54.63
85772;BME280;76212;56.844;41.394;2024-02-21T10:49:38;101449.75;;;-1.25;54.38
85772;BME280;76212;56.844;41.394;2024-02-21T10:55:00;101434.22;;;-2.06;54.89
85772;BME280;76212;56.844;41.394;2024-02-21T10:57:29;101415.53;;;-2.43;55.58
85772;BME280;76212;56.844;41.394;2024-02-21T10:59:59;101450.81;;;-2.14;56.66
85772;BME280;76212;56.844;41.394;2024-02-21T11:02:26;101456.84;;;-2.09;56.52
85772;BME280;76212;56.844;41.394;2024-02-21T11:04:57;101448.59;;;-1.72;55.09
85772;BME280;76212;56.844;41.394;2024-02-21T11:07:24;101457.69;;;-2.09;55.59
85772;BME280;76212;56.844;41.394;2024-02-21T11:09:52;101453.63;;;-2.39;56.04
85772;BME280;76212;56.844;41.394;2024-02-21T11:12:22;101444.41;;;-2.74;56.38
85772;BME280;76212;56.844;41.394;2024-02-21T11:14:49;101441.81;;;-2.75;57.90
85772;BME280;76212;56.844;41.394;2024-02-21T11:17:19;101449.63;;;-2.75;57.53
85772;BME280;76212;56.844;41.394;2024-02-21T11:19:52;101423.75;;;-2.94;58.09
85772;BME280;76212;56.844;41.394;2024-02-21T11:22:19;101452.31;;;-2.89;58.47
85772;BME280;76212;56.844;41.394;2024-02-21T11:24:51;101447.19;;;-2.97;58.63
85772;BME280;76212;56.844;41.394;2024-02-21T11:27:22;101439.47;;;-3.08;58.78
85772;BME280;76212;56.844;41.394;2024-02-21T11:29:57;101405.00;;;-3.42;59.05
85772;BME280;76212;56.844;41.394;2024-02-21T11:32:25;101360.22;;;-3.81;58.85
85772;BME280;76212;56.844;41.394;2024-02-21T11:34:59;101405.09;;;-3.51;59.00
85772;BME280;76212;56.844;41.394;2024-02-21T11:37:34;101424.91;;;-3.33;59.02
85772;BME280;76212;56.844;41.394;2024-02-21T11:40:03;101443.06;;;-3.29;59.83
85772;BME280;76212;56.844;41.394;2024-02-21T11:42:30;101436.91;;;-3.15;60.15
85772;BME280;76212;56.844;41.394;2024-02-21T11:44:57;101441.25;;;-3.17;60.14
85772;BME280;76212;56.844;41.394;2024-02-21T11:47:24;101430.03;;;-3.24;60.44
85772;BME280;76212;56.844;41.394;2024-02-21T11:49:50;101436.13;;;-3.28;59.60
85772;BME280;76212;56.844;41.394;2024-02-21T11:52:24;101425.84;;;-3.46;60.19
85772;BME280;76212;56.844;41.394;2024-02-21T11:54:54;101444.84;;;-3.41;60.47
85772;BME280;76212;56.844;41.394;2024-02-21T11:57:23;101386.00;;;-3.47;60.27
85772;BME280;76212;56.844;41.394;2024-02-21T11:59:51;101356.59;;;-3.49;59.83
85772;BME280;76212;56.844;41.394;2024-02-21T12:02:18;101407.38;;;-3.03;59.54
85772;BME280;76212;56.844;41.394;2024-02-21T12:04:45;101446.22;;;-2.83;59.17
85772;BME280;76212;56.844;41.394;2024-02-21T12:07:11;101453.25;;;-2.95;58.83
85772;BME280;76212;56.844;41.394;2024-02-21T12:09:38;101424.75;;;-3.10;59.61
85772;BME280;76212;56.844;41.394;2024-02-21T12:12:05;101450.72;;;-3.05;59.87
85772;BME280;76212;56.844;41.394;2024-02-21T12:14:33;101442.16;;;-3.23;60.14
85772;BME280;76212;56.844;41.394;2024-02-21T12:17:00;101408.56;;;-3.54;60.87
85772;BME280;76212;56.844;41.394;2024-02-21T12:19:31;101426.66;;;-3.40;60.83
85772;BME280;76212;56.844;41.394;2024-02-21T12:21:59;101441.41;;;-3.46;60.57
85772;BME280;76212;56.844;41.394;2024-02-21T12:24:27;101438.81;;;-3.50;60.85
85772;BME280;76212;56.844;41.394;2024-02-21T12:26:55;101437.91;;;-3.38;61.33
85772;BME280;76212;56.844;41.394;2024-02-21T12:29:25;101399.97;;;-3.71;61.49
85772;BME280;76212;56.844;41.394;2024-02-21T12:31:52;101439.69;;;-3.51;61.54
85772;BME280;76212;56.844;41.394;2024-02-21T12:34:21;101428.53;;;-3.69;61.51
85772;BME280;76212;56.844;41.394;2024-02-21T12:36:48;101437.16;;;-3.61;61.95
85772;BME280;76212;56.844;41.394;2024-02-21T12:39:15;101442.38;;;-3.74;61.60
85772;BME280;76212;56.844;41.394;2024-02-21T12:41:42;101437.25;;;-3.86;61.87
85772;BME280;76212;56.844;41.394;2024-02-21T12:44:10;101389.78;;;-4.22;62.88